In Rescue
 
Open Full Screen Window  High Contrast Mode
Wind Gusting 00 knots
08
September 19, 2019 3:53 PM CDT
Weather Information
Wind Direction
  200 °
Wind Speed
  08 kt (9 mph)
Wind Gust
  00 kt (0 mph)
Altimeter
29.99 in
Visibility
10 SM
Temperature
27° C
81° F
Dewpoint
20° C
68° F
Humidity
66%
1hr Rain Fall
00.00 in.
24hr Rain Fall
00.05 in.
Sky Condition
Scattered @ 3,700 ft
Scattered @ 2,900 ft
VFR

METAR KOWA 192053Z AUTO 20008KT 10SM SCT029 SCT037 27/20 A2999 RMK AO2

FAA Disclaimer: The data displayed is for advisory purposes only and is not to be used for flight planning or operations.